Map

Track Data

SID SEASON NUMBER BASIN SUBBASIN NAME ISO_TIME NATURE LAT LON WMO_WIND WMO_PRES WMO_AGENCY TRACK_TYPE DIST2LAND LANDFALL IFLAG USA_AGENCY USA_ATCF_ID USA_LAT USA_LON USA_RECORD USA_STATUS USA_WIND USA_PRES USA_SSHS USA_R34_NE USA_R34_SE USA_R34_SW USA_R34_NW USA_R50_NE USA_R50_SE USA_R50_SW USA_R50_NW USA_R64_NE USA_R64_SE USA_R64_SW USA_R64_NW USA_POCI USA_ROCI USA_RMW USA_EYE TOKYO_LAT TOKYO_LON TOKYO_GRADE TOKYO_WIND TOKYO_PRES TOKYO_R50_DIR TOKYO_R50_LONG TOKYO_R50_SHORT TOKYO_R30_DIR TOKYO_R30_LONG TOKYO_R30_SHORT TOKYO_LAND CMA_LAT CMA_LON CMA_CAT CMA_WIND CMA_PRES HKO_LAT HKO_LON HKO_CAT HKO_WIND HKO_PRES NEWDELHI_LAT NEWDELHI_LON NEWDELHI_GRADE NEWDELHI_WIND NEWDELHI_PRES NEWDELHI_CI NEWDELHI_DP NEWDELHI_POCI REUNION_LAT REUNION_LON REUNION_TYPE REUNION_WIND REUNION_PRES REUNION_TNUM REUNION_CI REUNION_RMW REUNION_R34_NE REUNION_R34_SE REUNION_R34_SW REUNION_R34_NW REUNION_R50_NE REUNION_R50_SE REUNION_R50_SW REUNION_R50_NW REUNION_R64_NE REUNION_R64_SE REUNION_R64_SW REUNION_R64_NW BOM_LAT BOM_LON BOM_TYPE BOM_WIND BOM_PRES BOM_TNUM BOM_CI BOM_RMW BOM_R34_NE BOM_R34_SE BOM_R34_SW BOM_R34_NW BOM_R50_NE BOM_R50_SE BOM_R50_SW BOM_R50_NW BOM_R64_NE BOM_R64_SE BOM_R64_SW BOM_R64_NW BOM_ROCI BOM_POCI BOM_EYE BOM_POS_METHOD BOM_PRES_METHOD NADI_LAT NADI_LON NADI_CAT NADI_WIND NADI_PRES WELLINGTON_LAT WELLINGTON_LON WELLINGTON_WIND WELLINGTON_PRES DS824_LAT DS824_LON DS824_STAGE DS824_WIND DS824_PRES TD9636_LAT TD9636_LON TD9636_STAGE TD9636_WIND TD9636_PRES TD9635_LAT TD9635_LON TD9635_WIND TD9635_PRES TD9635_ROCI NEUMANN_LAT NEUMANN_LON NEUMANN_CLASS NEUMANN_WIND NEUMANN_PRES MLC_LAT MLC_LON MLC_CLASS MLC_WIND MLC_PRES USA_GUST BOM_GUST BOM_GUST_PER REUNION_GUST REUNION_GUST_PER USA_SEAHGT USA_SEARAD_NE USA_SEARAD_SE USA_SEARAD_SW USA_SEARAD_NW STORM_SPEED STORM_DIR
1968056S13148 1968 18 SP EA NOT_NAMED 1968-02-24 23:00:00 NR -13.4000 147.500 main 297 297 __________O___ -1 -13.4000 147.500 1 15 1 0
1968056S13148 1968 18 SP EA NOT_NAMED 1968-02-25 00:00:00 TS -13.4122 147.519 main 297 297 O________OP___ jtwc_sh SH281968 -13.4000 147.500 15 -1 -13.4000 147.500 TC 15 -13.4244 147.538 1 15 3 126
1968056S13148 1968 18 SP EA NOT_NAMED 1968-02-25 03:00:00 TS -13.5063 147.650 main 299 299 P________PP___ SH281968 -13.5125 147.645 17 -1 -13.5125 147.645 TC 17 -13.4979 147.657 1 16 3 125
1968056S13148 1968 18 SP EA NOT_NAMED 1968-02-25 05:00:00 TS -13.5491 147.724 1006 bom main 308 302 P_____O__PP___ SH281968 -13.5752 147.747 19 -1 -13.4000 147.500 1006 -13.5752 147.747 TC 19 -13.5474 147.745 1 17 2 120
1968056S13148 1968 18 SP EA NOT_NAMED 1968-02-25 06:00:00 TS -13.5664 147.759 main 311 311 O_____P__OP___ jtwc_sh SH281968 -13.6000 147.800 20 -1 -13.4533 147.605 1006 -13.6000 147.800 TC 20 -13.5723 147.794 1 17 4 111
1968056S13148 1968 18 SP EA NOT_NAMED 1968-02-25 09:00:00 TS -13.6359 147.955 main 330 325 P_____P__PP___ SH281968 -13.6500 147.978 20 -1 -13.6075 147.912 1006 -13.6500 147.978 TC 20 -13.6482 147.963 1 19 4 109
1968056S13148 1968 18 SP EA NOT_NAMED 1968-02-25 11:00:00 TS -13.6861 148.109 1007 bom main 335 335 P_____O__PO___ SH281968 -13.6802 148.119 20 -1 -13.7000 148.100 1007 -13.6802 148.119 TC 20 -13.7000 148.100 1 20 5 109
1968056S13148 1968 18 SP EA NOT_NAMED 1968-02-25 12:00:00 TS -13.7136 148.193 main 344 344 O_____P__OP___ jtwc_sh SH281968 -13.7000 148.200 20 -1 -13.7416 148.186 1007 -13.7000 148.200 TC 20 -13.7263 148.177 1 19 5 110
1968056S13148 1968 18 SP EA NOT_NAMED 1968-02-25 15:00:00 TS -13.8119 148.461 main 370 370 P_____P__PP___ SH281968 -13.8000 148.492 17 -1 -13.8466 148.431 1007 -13.8000 148.492 TC 17 -13.8056 148.438 1 16 6 110
1968056S13148 1968 18 SP EA NOT_NAMED 1968-02-25 17:00:00 TS -13.8739 148.648 1007 bom main 376 376 P_____O__PP___ SH281968 -13.8698 148.700 15 -1 -13.9000 148.600 1007 -13.8698 148.700 TC 15 -13.8577 148.627 1 15 6 108
1968056S13148 1968 18 SP EA NOT_NAMED 1968-02-25 18:00:00 TS -13.9011 148.745 main 386 381 O_____P__OP___ jtwc_sh SH281968 -13.9000 148.800 15 -1 -13.9224 148.702 1007 -13.9000 148.800 TC 15 -13.8831 148.724 1 14 6 103
1968056S13148 1968 18 SP EA NOT_NAMED 1968-02-25 21:00:00 TS -13.9601 149.036 main 391 385 P_____P__PP___ SH281968 -13.9575 149.065 12 -1 -13.9721 149.018 1008 -13.9575 149.065 TC 12 -13.9558 149.015 1 11 6 101
1968056S13148 1968 18 SP EA NOT_NAMED 1968-02-25 23:00:00 TS -13.9916 149.213 1009 bom main 385 382 P_____O__PO___ SH281968 -13.9859 149.225 10 -1 -14.0000 149.200 1009 -13.9859 149.225 TC 10 -14.0000 149.200 1 10 5 101
1968056S13148 1968 18 SP EA NOT_NAMED 1968-02-26 00:00:00 TS -14.0076 149.288 main 382 379 O_____P__OP___ jtwc_sh SH281968 -14.0000 149.300 10 -1 -14.0166 149.259 1008 -14.0000 149.300 TC 10 -14.0212 149.281 1 10 4 105
1968056S13148 1968 18 SP EA NOT_NAMED 1968-02-26 03:00:00 TS -14.0592 149.471 main 388 386 P_____P__PP___ SH281968 -14.0499 149.500 12 -1 -14.0666 149.393 1007 -14.0499 149.500 TC 12 -14.0798 149.510 1 11 4 106
1968056S13148 1968 18 SP EA NOT_NAMED 1968-02-26 05:00:00 TS -14.0929 149.592 1007 bom main 386 384 P_____O__PP___ SH281968 -14.0833 149.630 14 -1 -14.1000 149.500 1007 -14.0833 149.630 TC 14 -14.1148 149.658 1 12 4 105
1968056S13148 1968 18 SP EA NOT_NAMED 1968-02-26 06:00:00 TS -14.1095 149.663 main 384 382 O_____P__OP___ jtwc_sh SH281968 -14.1000 149.700 15 -1 -14.1167 149.585 1007 -14.1000 149.700 TC 15 -14.1310 149.730 1 12 5 101
1968056S13148 1968 18 SP EA NOT_NAMED 1968-02-26 09:00:00 TS -14.1583 149.922 main 393 392 P_____P__PP___ SH281968 -14.1500 149.943 15 -1 -14.1667 149.892 1007 -14.1500 149.943 TC 15 -14.1749 149.950 1 14 5 101
1968056S13148 1968 18 SP EA NOT_NAMED 1968-02-26 11:00:00 TS -14.1900 150.105 1008 bom main 392 391 P_____O__PO___ SH281968 -14.1833 150.114 15 -1 -14.2000 150.100 1008 -14.1833 150.114 TC 15 -14.2000 150.100 1 15 5 100
1968056S13148 1968 18 SP EA NOT_NAMED 1968-02-26 12:00:00 TS -14.2069 150.193 main 391 391 O_____P__OP___ jtwc_sh SH281968 -14.2000 150.200 15 -1 -14.2193 150.189 1007 -14.2000 150.200 TC 15 -14.2153 150.178 1 15 5 102
1968056S13148 1968 18 SP EA NOT_NAMED 1968-02-26 15:00:00 TS -14.2609 150.442 main 403 403 P_____P__PP___ SH281968 -14.2575 150.450 15 -1 -14.2745 150.439 1007 -14.2575 150.450 TC 15 -14.2574 150.415 1 15 5 102
1968056S13148 1968 18 SP EA NOT_NAMED 1968-02-26 17:00:00 TS -14.2894 150.606 1007 bom main 403 403 P_____O__PP___ SH281968 -14.2890 150.617 15 -1 -14.3000 150.600 1007 -14.2890 150.617 TC 15 -14.2798 150.577 1 15 5 99
1968056S13148 1968 18 SP EA NOT_NAMED 1968-02-26 18:00:00 TS -14.2989 150.688 main 404 404 O_____P__OP___ jtwc_sh SH281968 -14.3000 150.700 15 -1 -14.3057 150.681 1007 -14.3000 150.700 TC 15 -14.2887 150.661 1 15 5 94
1968056S13148 1968 18 SP EA NOT_NAMED 1968-02-26 21:00:00 TS -14.3091 150.934 main 406 406 P_____P__PP___ SH281968 -14.3149 150.943 15 -1 -14.3054 150.925 1008 -14.3149 150.943 TC 15 -14.3030 150.919 1 15 5 91
1968056S13148 1968 18 SP EA NOT_NAMED 1968-02-26 23:00:00 TS -14.3038 151.107 1009 bom main 410 410 P_____O__PO___ SH281968 -14.3083 151.111 15 -1 -14.3000 151.100 1009 -14.3083 151.111 TC 15 -14.3000 151.100 1 15 5 88
1968056S13148 1968 18 SP EA NOT_NAMED 1968-02-27 00:00:00 TS -14.2997 151.197 main 412 412 O_____P__OP___ jtwc_sh SH281968 -14.3000 151.200 15 -1 -14.3052 151.194 1008 -14.3000 151.200 TC 15 -14.2934 151.192 1 15 6 86
1968056S13148 1968 18 SP EA NOT_NAMED 1968-02-27 03:00:00 TS -14.2805 151.490 main 420 420 P_____P__PP___ SH281968 -14.2575 151.493 15 -1 -14.3158 151.495 1007 -14.2575 151.493 TC 15 -14.2570 151.479 1 15 6 85
1968056S13148 1968 18 SP EA NOT_NAMED 1968-02-27 05:00:00 TS -14.2545 151.694 1006 bom main 427 416 P_____O__PP___ SH281968 -14.2193 151.697 15 -1 -14.3000 151.700 1006 -14.2193 151.697 TC 15 -14.2224 151.678 1 15 6 81
1968056S13148 1968 18 SP EA NOT_NAMED 1968-02-27 06:00:00 TS -14.2357 151.795 main 420 420 O_____P__OP___ jtwc_sh SH281968 -14.2000 151.800 15 -1 -14.2754 151.797 1006 -14.2000 151.800 TC 15 -14.2031 151.779 1 15 6 77
1968056S13148 1968 18 SP EA NOT_NAMED 1968-02-27 09:00:00 TS -14.1636 152.092 main 430 424 P_____P__PP___ SH281968 -14.1499 152.092 15 -1 -14.1696 152.092 1007 -14.1499 152.092 TC 15 -14.1411 152.089 1 15 6 76
1968056S13148 1968 18 SP EA NOT_NAMED 1968-02-27 11:00:00 TS -14.1132 152.297 1008 bom main 428 428 P_____O__PO___ SH281968 -14.1166 152.294 15 -1 -14.1000 152.300 1008 -14.1166 152.294 TC 15 -14.1000 152.300 1 15 6 77
1968056S13148 1968 18 SP EA NOT_NAMED 1968-02-27 12:00:00 TS -14.0919 152.404 main 433 433 O_____P__OP___ jtwc_sh SH281968 -14.1000 152.400 15 -1 -14.0776 152.414 1008 -14.1000 152.400 TC 15 -14.0821 152.406 1 15 7 81
1968056S13148 1968 18 SP EA NOT_NAMED 1968-02-27 15:00:00 TS -14.0397 152.750 main 443 443 P_____P__PP___ SH281968 -14.0500 152.750 15 -1 -14.0279 152.769 1008 -14.0500 152.750 TC 15 -14.0278 152.731 1 15 7 81
1968056S13148 1968 18 SP EA NOT_NAMED 1968-02-27 17:00:00 TS -14.0080 152.982 1008 bom main 455 455 P_____O__PP___ SH281968 -14.0167 152.986 15 -1 -14.0000 153.000 1008 -14.0167 152.986 TC 15 -13.9924 152.950 1 15 7 82
1968056S13148 1968 18 SP EA NOT_NAMED 1968-02-27 18:00:00 TS -13.9917 153.093 main 461 461 O_____P__OP___ jtwc_sh SH281968 -14.0000 153.100 15 -1 -13.9833 153.106 1007 -14.0000 153.100 TC 15 -13.9753 153.060 1 15 6 81
1968056S13148 1968 18 SP EA NOT_NAMED 1968-02-27 21:00:00 TS -13.9421 153.403 main 471 471 P_____P__PP___ SH281968 -13.9499 153.407 15 -1 -13.9333 153.405 1007 -13.9499 153.407 TC 15 -13.9276 153.386 1 15 6 81
1968056S13148 1968 18 SP EA NOT_NAMED 1968-02-27 23:00:00 TS -13.9100 153.602 1007 bom main 485 485 P_____O__PO___ SH281968 -13.9166 153.603 15 -1 -13.9000 153.600 1007 -13.9166 153.603 TC 15 -13.9000 153.600 1 15 6 80
1968056S13148 1968 18 SP EA NOT_NAMED 1968-02-28 00:00:00 TS -13.8935 153.701 main 492 492 O_____P__OP___ jtwc_sh SH281968 -13.9000 153.700 15 -1 -13.8807 153.700 1006 -13.9000 153.700 TC 15 -13.8870 153.703 1 15 6 80
1968056S13148 1968 18 SP EA NOT_NAMED 1968-02-28 03:00:00 TS -13.8412 154.002 main 507 507 P_____P__PP___ SH281968 -13.8425 154.000 17 -1 -13.8254 154.000 1005 -13.8425 154.000 TC 17 -13.8532 154.008 1 16 6 81
1968056S13148 1968 18 SP EA NOT_NAMED 1968-02-28 05:00:00 TS -13.8135 154.202 1005 bom main 522 522 P_____O__PP___ SH281968 -13.8109 154.200 19 -1 -13.8000 154.200 1005 -13.8109 154.200 TC 19 -13.8348 154.207 1 17 6 83
1968056S13148 1968 18 SP EA NOT_NAMED 1968-02-28 06:00:00 TS -13.8042 154.301 main 530 530 O_____P__OP___ jtwc_sh SH281968 -13.8000 154.300 20 -1 -13.7943 154.297 1005 -13.8000 154.300 TC 20 -13.8269 154.307 1 17 6 87
1968056S13148 1968 18 SP EA NOT_NAMED 1968-02-28 09:00:00 TS -13.7960 154.597 main 555 555 P_____P__PP___ SH281968 -13.7925 154.600 20 -1 -13.7945 154.592 1006 -13.7925 154.600 TC 20 -13.8082 154.603 1 19 6 89
1968056S13148 1968 18 SP EA NOT_NAMED 1968-02-28 11:00:00 TS -13.7984 154.799 1007 bom main 571 571 P_____O__PO___ SH281968 -13.7974 154.800 20 -1 -13.8000 154.800 1007 -13.7974 154.800 TC 20 -13.8000 154.800 1 20 6 91
1968056S13148 1968 18 SP EA NOT_NAMED 1968-02-28 12:00:00 TS -13.7994 154.903 main 580 580 O_____P__OP___ jtwc_sh SH281968 -13.8000 154.900 20 -1 -13.8000 154.916 1006 -13.8000 154.900 TC 20 -13.7971 154.899 1 19 6 90
1968056S13148 1968 18 SP EA NOT_NAMED 1968-02-28 15:00:00 TS -13.7997 155.225 main 606 606 P_____P__PP___ SH281968 -13.8026 155.200 17 -1 -13.8000 155.277 1006 -13.8026 155.200 TC 17 -13.7928 155.198 1 16 6 90
1968056S13148 1968 18 SP EA NOT_NAMED 1968-02-28 17:00:00 TS -13.7984 155.439 1006 bom main 624 624 P_____O__PP___ SH281968 -13.8011 155.400 15 -1 -13.8000 155.500 1006 -13.8011 155.400 TC 15 -13.7928 155.397 1 15 6 90
1968056S13148 1968 18 SP EA NOT_NAMED 1968-02-28 18:00:00 TS -13.7978 155.543 main 633 621 O_____P__OP___ jtwc_sh SH281968 -13.8000 155.500 15 -1 -13.8000 155.599 1006 -13.8000 155.500 TC 15 -13.7934 155.498 1 14 6 90
1968056S13148 1968 18 SP EA NOT_NAMED 1968-02-28 21:00:00 NR -13.7985 155.825 main 621 609 ______P___P___ SH281968 -1 -13.8000 155.851 1006 TC -13.7970 155.799 1 11 5 90
1968056S13148 1968 18 SP EA NOT_NAMED 1968-02-28 23:00:00 NR -13.8000 156.000 1007 bom main 609 ______O___O___ SH281968 -1 -13.8000 156.000 1007 TC -13.8000 156.000 1 10 5 91

Digital Typhoon Data and Search

About IBTrACS Database

This database is a web-friendly format of International Best Track Archive for Climate Stewardship (IBTrACS), a global best track data archive curated by NOAA dating back to 1842.

Updated: 2021-12-03